createdAt,value
2022-10-19T00:01:07.339Z,25.90
2022-10-19T00:03:36.514Z,39.75
2022-10-19T00:06:18.848Z,27.77
2022-10-19T00:08:46.389Z,25.88
2022-10-19T00:11:14.014Z,34.72
2022-10-19T00:13:41.548Z,35.58
2022-10-19T00:16:14.436Z,32.47
2022-10-19T00:18:46.022Z,31.88
2022-10-19T00:21:16.289Z,27.02
2022-10-19T00:23:44.283Z,36.55
2022-10-19T00:26:13.123Z,20.63
2022-10-19T00:28:43.032Z,30.73
2022-10-19T00:31:16.671Z,30.42
2022-10-19T00:33:46.766Z,36.40
2022-10-19T00:36:32.349Z,32.88
2022-10-19T00:39:00.377Z,36.85
2022-10-19T00:41:31.163Z,32.97
2022-10-19T00:44:04.851Z,37.85
2022-10-19T00:46:35.826Z,26.58
2022-10-19T00:49:17.600Z,33.53
2022-10-19T00:51:49.215Z,34.90
2022-10-19T00:54:18.169Z,30.05
2022-10-19T00:56:49.576Z,33.03
2022-10-19T00:59:20.090Z,27.30
2022-10-19T01:01:48.942Z,39.85
2022-10-19T01:04:16.850Z,41.17
2022-10-19T01:06:44.372Z,39.65
2022-10-19T01:09:11.924Z,29.85
2022-10-19T01:12:00.459Z,35.08
2022-10-19T01:14:44.630Z,35.08
2022-10-19T01:17:42.482Z,33.15
2022-10-19T01:23:04.981Z,37.58
2022-10-19T01:26:16.723Z,38.80
2022-10-19T01:28:59.622Z,28.38
2022-10-19T01:31:46.980Z,24.20
2022-10-19T01:34:25.269Z,33.08
2022-10-19T01:37:10.937Z,22.35
2022-10-19T01:39:50.080Z,33.88
2022-10-19T01:42:23.189Z,32.92
2022-10-19T01:45:02.328Z,27.42
2022-10-19T01:47:57.478Z,29.95
2022-10-19T01:50:36.095Z,23.58
2022-10-19T01:53:07.279Z,28.15
2022-10-19T01:55:37.562Z,24.80
2022-10-19T01:58:09.775Z,26.10
2022-10-19T02:00:41.296Z,25.65
2022-10-19T02:03:10.199Z,29.60
2022-10-19T02:05:38.961Z,34.53
2022-10-19T02:08:17.105Z,27.98
2022-10-19T02:13:15.410Z,31.27
2022-10-19T02:15:47.391Z,28.33
2022-10-19T02:18:19.787Z,26.58
2022-10-19T02:20:47.553Z,34.15
2022-10-19T02:23:17.335Z,29.35
2022-10-19T02:25:45.042Z,30.23
2022-10-19T02:28:13.092Z,28.48
2022-10-19T02:30:42.361Z,25.35
2022-10-19T02:33:12.305Z,33.50
2022-10-19T02:35:40.235Z,33.90
2022-10-19T02:38:10.289Z,25.17
2022-10-19T02:40:42.024Z,20.90
2022-10-19T02:43:17.819Z,32.45
2022-10-19T02:45:56.978Z,22.20
2022-10-19T02:48:27.026Z,28.88
2022-10-19T02:50:54.501Z,18.45
2022-10-19T02:53:21.975Z,29.38
2022-10-19T02:55:50.571Z,21.63
2022-10-19T02:58:18.127Z,30.30
2022-10-19T03:00:45.687Z,30.70
2022-10-19T03:03:13.213Z,28.98
2022-10-19T03:05:40.769Z,32.47
2022-10-19T03:08:08.313Z,26.77
2022-10-19T03:10:35.812Z,30.92
2022-10-19T03:13:03.315Z,39.67
2022-10-19T03:15:31.135Z,28.67
2022-10-19T03:17:58.647Z,32.47
2022-10-19T03:20:26.225Z,27.80
2022-10-19T03:25:26.125Z,21.67
2022-10-19T03:27:54.054Z,30.48
2022-10-19T03:30:21.528Z,38.55
2022-10-19T03:32:49.087Z,39.35
2022-10-19T03:35:16.607Z,25.10
2022-10-19T03:37:44.106Z,40.53
2022-10-19T03:40:11.549Z,35.08
2022-10-19T03:42:39.055Z,32.92
2022-10-19T03:45:07.130Z,33.45
2022-10-19T03:47:34.926Z,30.55
2022-10-19T03:50:02.808Z,29.50
2022-10-19T03:52:30.362Z,23.50
2022-10-19T03:54:57.837Z,32.97
2022-10-19T03:57:25.297Z,32.47
2022-10-19T03:59:52.727Z,39.65
2022-10-19T04:02:20.244Z,27.85
2022-10-19T04:04:47.755Z,33.38
2022-10-19T04:07:15.202Z,33.75
2022-10-19T04:09:42.708Z,32.90
2022-10-19T04:12:10.162Z,36.25
2022-10-19T04:14:55.850Z,31.60
2022-10-19T04:17:25.745Z,32.72
2022-10-19T04:22:20.701Z,46.17
2022-10-19T04:24:48.217Z,33.63
2022-10-19T04:27:15.661Z,33.55
2022-10-19T04:29:43.143Z,41.38
2022-10-19T04:32:10.709Z,33.97
2022-10-19T04:34:39.988Z,39.17
2022-10-19T04:37:10.439Z,31.70
2022-10-19T04:39:40.862Z,37.33
2022-10-19T04:42:08.370Z,43.28
2022-10-19T04:44:35.765Z,41.70
2022-10-19T04:47:03.297Z,43.92
2022-10-19T04:49:31.114Z,46.72
2022-10-19T04:51:58.669Z,32.17
2022-10-19T04:54:26.164Z,42.60
2022-10-19T04:56:53.985Z,48.90
2022-10-19T04:59:21.498Z,41.83
2022-10-19T05:01:48.957Z,37.90
2022-10-19T05:04:16.481Z,41.15
2022-10-19T05:06:43.970Z,43.10
2022-10-19T05:09:11.674Z,47.53
2022-10-19T05:11:39.202Z,40.13
2022-10-19T05:14:06.833Z,54.65
2022-10-19T05:16:34.355Z,45.78
2022-10-19T05:19:02.042Z,43.95
2022-10-19T05:21:29.623Z,47.30
2022-10-19T05:23:58.076Z,45.58
2022-10-19T05:26:27.320Z,47.47
2022-10-19T05:28:59.216Z,51.90
2022-10-19T05:31:29.292Z,48.45
2022-10-19T05:33:57.526Z,45.47
2022-10-19T05:38:57.862Z,53.35
2022-10-19T05:41:26.566Z,46.22
2022-10-19T05:43:56.562Z,50.50
2022-10-19T05:46:25.471Z,48.13
2022-10-19T05:48:53.057Z,56.38
2022-10-19T05:51:21.502Z,59.05
2022-10-19T05:53:49.368Z,43.08
2022-10-19T05:56:19.739Z,58.38
2022-10-19T05:58:47.699Z,47.53
2022-10-19T06:01:15.936Z,59.35
2022-10-19T06:06:11.501Z,58.53
2022-10-19T06:11:11.862Z,64.05
2022-10-19T06:13:40.607Z,51.85
2022-10-19T06:16:09.248Z,52.05
2022-10-19T06:18:37.713Z,53.33
2022-10-19T06:21:08.461Z,54.35
2022-10-19T06:23:36.839Z,61.22
2022-10-19T06:28:33.081Z,55.92
2022-10-19T06:31:00.930Z,56.72
2022-10-19T06:33:30.048Z,57.70
2022-10-19T06:36:08.620Z,52.03
2022-10-19T06:38:36.710Z,57.47
2022-10-19T06:41:04.883Z,59.72
2022-10-19T06:46:20.362Z,52.83
2022-10-19T06:51:19.436Z,49.40
2022-10-19T06:53:47.206Z,54.00
2022-10-19T06:56:14.805Z,52.20
2022-10-19T06:58:42.478Z,61.05
2022-10-19T07:01:11.889Z,55.08
2022-10-19T07:03:39.923Z,50.55
2022-10-19T07:06:11.227Z,46.63
2022-10-19T07:08:40.156Z,49.35
2022-10-19T07:11:12.980Z,51.22
2022-10-19T07:13:40.680Z,48.47
2022-10-19T07:16:19.820Z,56.83
2022-10-19T07:18:56.152Z,43.50
2022-10-19T07:21:23.968Z,39.67
2022-10-19T07:23:51.997Z,42.25
2022-10-19T07:26:26.966Z,51.47
2022-10-19T07:28:56.882Z,46.60
2022-10-19T07:31:25.817Z,37.55
2022-10-19T07:34:01.777Z,36.50
2022-10-19T07:36:31.615Z,37.25
2022-10-19T07:39:00.556Z,37.45
2022-10-19T07:41:28.266Z,39.72
2022-10-19T07:43:57.687Z,40.80
2022-10-19T07:46:29.195Z,40.03
2022-10-19T07:48:56.767Z,37.55
2022-10-19T07:51:24.234Z,30.65
2022-10-19T07:53:52.657Z,39.15
2022-10-19T07:58:53.676Z,40.42
2022-10-19T08:01:23.825Z,36.22
2022-10-19T08:06:45.315Z,40.17
2022-10-19T08:09:39.959Z,35.42
2022-10-19T08:12:05.904Z,42.30
2022-10-19T08:14:34.732Z,34.88
2022-10-19T08:17:02.677Z,31.00
2022-10-19T08:19:30.158Z,30.15
2022-10-19T08:21:58.034Z,35.65
2022-10-19T08:24:25.516Z,39.67
2022-10-19T08:26:52.978Z,32.75
2022-10-19T08:29:21.695Z,36.15
2022-10-19T08:31:50.151Z,28.38
2022-10-19T08:34:17.897Z,34.97
2022-10-19T08:36:45.874Z,36.72
2022-10-19T08:39:14.503Z,33.47
2022-10-19T08:41:45.036Z,31.83
2022-10-19T08:44:35.351Z,33.67
2022-10-19T08:47:35.635Z,27.85
2022-10-19T08:50:09.297Z,30.73
2022-10-19T08:52:38.883Z,28.23
2022-10-19T08:55:25.928Z,28.20
2022-10-19T08:58:12.508Z,34.92
2022-10-19T09:01:00.337Z,37.33
2022-10-19T09:04:00.007Z,34.28
2022-10-19T09:06:37.209Z,38.40
2022-10-19T09:09:05.772Z,30.67
2022-10-19T09:11:38.935Z,37.05
2022-10-19T09:14:22.769Z,35.28
2022-10-19T09:16:50.508Z,37.55
2022-10-19T09:19:25.613Z,37.95
2022-10-19T09:21:59.584Z,29.95
2022-10-19T09:24:43.370Z,29.75
2022-10-19T09:27:26.134Z,31.77
2022-10-19T09:30:04.831Z,24.98
2022-10-19T09:32:35.939Z,26.73
2022-10-19T09:35:15.424Z,31.27
2022-10-19T09:37:48.887Z,31.35
2022-10-19T09:40:26.267Z,39.10
2022-10-19T09:42:58.210Z,36.35
2022-10-19T09:46:11.616Z,32.17
2022-10-19T09:48:52.623Z,25.48
2022-10-19T09:51:23.711Z,31.38
2022-10-19T09:53:53.183Z,31.92
2022-10-19T09:56:24.179Z,30.73
2022-10-19T09:58:54.558Z,36.35
2022-10-19T10:01:41.704Z,30.42
2022-10-19T10:04:15.846Z,29.88
2022-10-19T10:06:44.478Z,32.70
2022-10-19T10:09:17.576Z,34.47
2022-10-19T10:11:48.641Z,29.77
2022-10-19T10:14:32.549Z,30.88
2022-10-19T10:17:12.527Z,31.25
2022-10-19T10:19:51.856Z,35.28
2022-10-19T10:22:31.680Z,31.10
2022-10-19T10:24:59.975Z,29.38
2022-10-19T10:30:09.620Z,27.80
2022-10-19T10:32:43.306Z,31.88
2022-10-19T10:35:39.774Z,26.52
2022-10-19T10:38:18.123Z,32.83
2022-10-19T10:40:56.603Z,34.30
2022-10-19T10:43:33.654Z,28.23
2022-10-19T10:46:08.435Z,38.35
2022-10-19T10:48:53.566Z,31.15
2022-10-19T10:51:33.368Z,35.88
2022-10-19T10:54:20.736Z,36.70
2022-10-19T10:57:06.926Z,32.65
2022-10-19T10:59:57.117Z,34.40
2022-10-19T11:02:49.247Z,32.05
2022-10-19T11:05:36.172Z,42.47
2022-10-19T11:08:12.612Z,28.65
2022-10-19T11:10:49.068Z,28.05
2022-10-19T11:13:41.411Z,35.78
2022-10-19T11:16:14.919Z,29.15
2022-10-19T11:19:08.830Z,30.05
2022-10-19T11:21:54.837Z,31.23
2022-10-19T11:24:37.509Z,35.42
2022-10-19T11:27:14.202Z,30.50
2022-10-19T11:29:49.891Z,31.08
2022-10-19T11:32:35.611Z,28.23
2022-10-19T11:35:08.524Z,29.80
2022-10-19T11:38:17.368Z,26.98
2022-10-19T11:43:49.939Z,39.72
2022-10-19T11:46:25.853Z,30.45
2022-10-19T11:49:15.139Z,34.42
2022-10-19T11:51:57.655Z,26.52
2022-10-19T11:54:37.177Z,34.17
2022-10-19T11:57:16.751Z,27.08
2022-10-19T11:59:47.267Z,28.42
2022-10-19T12:02:50.167Z,30.40
2022-10-19T12:06:02.887Z,28.70
2022-10-19T12:09:03.991Z,33.35
2022-10-19T12:11:49.295Z,30.98
2022-10-19T12:14:28.584Z,33.20
2022-10-19T12:17:01.381Z,27.75
2022-10-19T12:19:42.365Z,31.50
2022-10-19T12:22:16.249Z,28.48
2022-10-19T12:24:43.914Z,28.42
2022-10-19T12:27:15.086Z,32.78
2022-10-19T12:29:47.718Z,31.33
2022-10-19T12:32:19.350Z,35.63
2022-10-19T12:35:12.486Z,28.92
2022-10-19T12:37:44.028Z,35.80
2022-10-19T12:40:39.944Z,27.00
2022-10-19T12:43:19.684Z,33.22
2022-10-19T12:46:29.216Z,30.00
2022-10-19T12:49:30.502Z,29.08
2022-10-19T12:52:00.392Z,31.20
2022-10-19T12:54:38.139Z,34.15
2022-10-19T12:57:23.353Z,28.40
2022-10-19T13:00:21.770Z,32.65
2022-10-19T13:02:57.131Z,30.95
2022-10-19T13:05:27.743Z,37.65
2022-10-19T13:07:55.518Z,28.98
2022-10-19T13:10:28.209Z,31.77
2022-10-19T13:12:55.943Z,28.20
2022-10-19T13:15:35.640Z,29.65
2022-10-19T13:18:16.159Z,27.25
2022-10-19T13:20:54.240Z,31.95
2022-10-19T13:26:24.388Z,32.50
2022-10-19T13:28:56.239Z,38.50
2022-10-19T13:31:27.964Z,34.22
2022-10-19T13:33:56.678Z,24.38
2022-10-19T13:36:25.435Z,33.85
2022-10-19T13:38:58.551Z,41.20
2022-10-19T13:41:46.696Z,32.92
2022-10-19T13:44:26.716Z,28.63
2022-10-19T13:47:09.309Z,27.40
2022-10-19T13:49:49.234Z,29.05
2022-10-19T13:52:44.214Z,29.88
2022-10-19T13:55:32.914Z,33.13
2022-10-19T13:58:25.132Z,32.20
2022-10-19T14:01:21.857Z,29.98
2022-10-19T14:04:20.766Z,34.43
2022-10-19T14:06:56.028Z,30.63
2022-10-19T14:10:06.500Z,30.33
2022-10-19T14:12:41.676Z,34.47
2022-10-19T14:15:18.335Z,29.73
2022-10-19T14:17:45.779Z,25.92
2022-10-19T14:20:39.746Z,30.02
2022-10-19T14:23:21.264Z,27.55
2022-10-19T14:26:04.770Z,28.98
2022-10-19T14:28:33.829Z,35.00
2022-10-19T14:31:18.108Z,29.15
2022-10-19T14:33:47.741Z,39.65
2022-10-19T14:36:18.646Z,31.95
2022-10-19T14:38:49.034Z,28.95
2022-10-19T14:41:29.550Z,36.55
2022-10-19T14:43:58.408Z,30.13
2022-10-19T14:46:29.868Z,37.53
2022-10-19T14:49:08.407Z,36.20
2022-10-19T14:51:38.736Z,32.75
2022-10-19T14:54:38.924Z,37.35
2022-10-19T14:57:19.938Z,37.20
2022-10-19T14:59:48.831Z,38.42
2022-10-19T15:02:37.283Z,34.45
2022-10-19T15:05:07.006Z,41.53
2022-10-19T15:07:38.458Z,31.67
2022-10-19T15:10:18.744Z,34.42
2022-10-19T15:12:46.777Z,41.80
2022-10-19T15:15:30.652Z,30.00
2022-10-19T15:18:01.354Z,35.00
2022-10-19T15:20:44.097Z,33.08
2022-10-19T15:23:42.834Z,36.28
2022-10-19T15:26:24.699Z,43.65
2022-10-19T15:28:53.583Z,39.65
2022-10-19T15:31:28.961Z,37.58
2022-10-19T15:33:59.555Z,34.67
2022-10-19T15:36:29.735Z,38.38
2022-10-19T15:39:11.821Z,48.70
2022-10-19T15:41:49.609Z,36.33
2022-10-19T15:44:40.617Z,36.63
2022-10-19T15:47:23.746Z,40.33
2022-10-19T15:49:52.689Z,37.38
2022-10-19T15:52:22.684Z,30.15
2022-10-19T15:54:52.150Z,36.63
2022-10-19T15:57:22.298Z,38.08
2022-10-19T15:59:49.899Z,36.78
2022-10-19T16:02:17.472Z,39.10
2022-10-19T16:04:45.014Z,39.75
2022-10-19T16:07:24.701Z,34.10
2022-10-19T16:09:53.191Z,37.38
2022-10-19T16:12:21.626Z,35.78
2022-10-19T16:14:49.193Z,46.78
2022-10-19T16:17:16.904Z,38.60
2022-10-19T16:19:45.753Z,32.33
2022-10-19T16:22:14.598Z,34.42
2022-10-19T16:24:43.029Z,43.17
2022-10-19T16:27:15.055Z,38.17
2022-10-19T16:29:44.601Z,40.55
2022-10-19T16:32:12.099Z,40.58
2022-10-19T16:34:42.165Z,43.58
2022-10-19T16:37:09.624Z,42.42
2022-10-19T16:39:37.114Z,40.05
2022-10-19T16:42:04.622Z,38.08
2022-10-19T16:44:32.690Z,35.70
2022-10-19T16:47:00.500Z,39.42
2022-10-19T16:49:28.047Z,41.20
2022-10-19T16:51:57.414Z,45.85
2022-10-19T16:54:32.829Z,51.72
2022-10-19T16:57:00.293Z,48.42
2022-10-19T16:59:27.767Z,44.15
2022-10-19T17:01:55.560Z,40.42
2022-10-19T17:04:23.137Z,41.95
2022-10-19T17:06:50.680Z,44.17
2022-10-19T17:12:29.276Z,44.25
2022-10-19T17:15:37.247Z,46.35
2022-10-19T17:17:53.628Z,35.67
2022-10-19T17:20:21.139Z,53.15
2022-10-19T17:22:51.860Z,45.05
2022-10-19T17:25:19.400Z,36.05
2022-10-19T17:27:50.874Z,50.45
2022-10-19T17:30:19.035Z,46.05
2022-10-19T17:35:13.863Z,47.53
2022-10-19T17:37:41.415Z,39.55
2022-10-19T17:40:09.658Z,41.95
2022-10-19T17:45:05.272Z,38.22
2022-10-19T17:47:32.867Z,42.50
2022-10-19T17:50:00.561Z,45.13
2022-10-19T17:52:28.136Z,44.42
2022-10-19T17:55:12.641Z,50.70
2022-10-19T17:57:40.835Z,57.05
2022-10-19T18:00:08.776Z,50.67
2022-10-19T18:02:40.612Z,41.65
2022-10-19T18:05:08.599Z,50.90
2022-10-19T18:07:36.604Z,45.40
2022-10-19T18:12:32.165Z,55.30
2022-10-19T18:14:59.706Z,47.90
2022-10-19T18:17:27.885Z,53.42
2022-10-19T18:22:22.800Z,53.22
2022-10-19T18:24:50.249Z,45.67
2022-10-19T18:27:17.652Z,48.08
2022-10-19T18:29:45.096Z,56.20
2022-10-19T18:32:12.536Z,56.33
2022-10-19T18:34:40.058Z,49.40
2022-10-19T18:37:07.559Z,49.50
2022-10-19T18:39:35.073Z,44.80
2022-10-19T18:42:02.582Z,53.67
2022-10-19T18:44:33.519Z,51.25
2022-10-19T18:47:01.268Z,51.40
2022-10-19T18:49:31.785Z,47.63
2022-10-19T18:51:59.646Z,49.45
2022-10-19T18:54:28.084Z,46.55
2022-10-19T18:56:55.953Z,48.20
2022-10-19T18:59:23.751Z,51.30
2022-10-19T19:01:51.537Z,49.88
2022-10-19T19:04:19.087Z,49.08
2022-10-19T19:06:46.569Z,57.67
2022-10-19T19:09:14.155Z,52.45
2022-10-19T19:11:43.836Z,49.50
2022-10-19T19:14:14.182Z,50.72
2022-10-19T19:16:42.777Z,58.85
2022-10-19T19:19:12.111Z,55.17
2022-10-19T19:21:43.570Z,54.38
2022-10-19T19:24:13.663Z,53.53
2022-10-19T19:26:43.420Z,54.28
2022-10-19T19:29:11.154Z,65.50
2022-10-19T19:31:41.122Z,52.92
2022-10-19T19:34:09.467Z,57.05
2022-10-19T19:36:38.483Z,56.38
2022-10-19T19:39:06.031Z,51.30
2022-10-19T19:41:34.203Z,53.70
2022-10-19T19:46:29.404Z,59.03
2022-10-19T19:49:01.444Z,60.20
2022-10-19T19:51:30.765Z,47.88
2022-10-19T19:53:58.879Z,51.20
2022-10-19T19:56:27.257Z,59.63
2022-10-19T20:01:26.713Z,61.22
2022-10-19T20:06:25.127Z,59.40
2022-10-19T20:08:56.371Z,54.65
2022-10-19T20:11:26.394Z,57.97
2022-10-19T20:13:53.943Z,67.68
2022-10-19T20:16:26.733Z,66.35
2022-10-19T20:19:05.784Z,56.88
2022-10-19T20:21:33.715Z,56.13
2022-10-19T20:24:01.363Z,58.97
2022-10-19T20:26:29.634Z,60.30
2022-10-19T20:28:57.826Z,59.47
2022-10-19T20:33:52.880Z,55.85
2022-10-19T20:36:23.633Z,55.75
2022-10-19T20:38:56.518Z,61.08
2022-10-19T20:41:28.646Z,62.85
2022-10-19T20:43:56.494Z,60.60
2022-10-19T20:46:27.909Z,63.33
2022-10-19T20:48:57.973Z,70.65
2022-10-19T20:51:31.608Z,74.82
2022-10-19T20:54:01.810Z,65.25
2022-10-19T20:56:31.698Z,69.00
2022-10-19T20:59:04.484Z,74.22
2022-10-19T21:01:34.281Z,65.85
2022-10-19T21:04:04.664Z,81.82
2022-10-19T21:06:36.940Z,86.40
2022-10-19T21:09:05.088Z,79.57
2022-10-19T21:14:07.552Z,80.85
2022-10-19T21:16:35.569Z,78.78
2022-10-19T21:19:05.184Z,78.75
2022-10-19T21:21:38.594Z,73.28
2022-10-19T21:24:16.128Z,82.97
2022-10-19T21:26:44.224Z,85.10
2022-10-19T21:31:45.119Z,82.93
2022-10-19T21:34:18.562Z,80.30
2022-10-19T21:36:46.507Z,78.15
2022-10-19T21:39:14.322Z,82.93
2022-10-19T21:41:41.804Z,78.25
2022-10-19T21:44:09.359Z,70.60
2022-10-19T21:46:36.817Z,77.47
2022-10-19T21:49:04.325Z,62.13
2022-10-19T21:51:42.273Z,73.53
2022-10-19T21:54:13.754Z,71.20
2022-10-19T21:56:41.398Z,72.35
2022-10-19T21:59:08.940Z,64.47
2022-10-19T22:01:40.132Z,63.25
2022-10-19T22:04:12.715Z,65.50
2022-10-19T22:06:40.734Z,71.20
2022-10-19T22:09:11.675Z,69.68
2022-10-19T22:11:39.230Z,65.75
2022-10-19T22:14:06.687Z,61.00
2022-10-19T22:16:36.801Z,65.03
2022-10-19T22:19:05.852Z,62.20
2022-10-19T22:21:34.627Z,60.22
2022-10-19T22:24:05.466Z,58.53
2022-10-19T22:26:36.450Z,62.83
2022-10-19T22:29:05.584Z,66.80
2022-10-19T22:31:34.436Z,68.90
2022-10-19T22:34:06.846Z,62.20
2022-10-19T22:36:34.772Z,67.88
2022-10-19T22:39:02.521Z,69.57
2022-10-19T22:41:29.947Z,68.30
2022-10-19T22:43:57.409Z,73.80
2022-10-19T22:46:24.913Z,78.75
2022-10-19T22:48:52.467Z,90.97
2022-10-19T22:51:20.028Z,87.50
2022-10-19T22:53:47.514Z,78.07
2022-10-19T22:56:15.063Z,78.85
2022-10-19T22:58:42.463Z,75.82
2022-10-19T23:01:13.132Z,70.22
2022-10-19T23:03:40.785Z,71.45
2022-10-19T23:06:10.474Z,81.07
2022-10-19T23:08:38.321Z,74.13
2022-10-19T23:11:05.898Z,79.20
2022-10-19T23:13:33.559Z,79.40
2022-10-19T23:16:01.565Z,80.03
2022-10-19T23:18:37.519Z,79.65
2022-10-19T23:21:08.069Z,76.25
2022-10-19T23:23:36.895Z,81.97
2022-10-19T23:26:05.744Z,70.28
2022-10-19T23:28:35.241Z,67.47
2022-10-19T23:31:08.939Z,81.47
2022-10-19T23:33:37.255Z,87.55
2022-10-19T23:36:08.181Z,79.93
2022-10-19T23:38:36.236Z,78.03
2022-10-19T23:41:04.206Z,84.40
2022-10-19T23:43:32.175Z,84.85
2022-10-19T23:48:27.470Z,74.05
2022-10-19T23:51:04.083Z,71.57
2022-10-19T23:53:35.746Z,71.68
2022-10-19T23:56:08.738Z,64.90
2022-10-19T23:58:36.234Z,76.88
